createdAt,value
2023-03-29T00:25:41.608Z,41.66
2023-03-29T00:55:45.003Z,41.64
2023-03-29T01:25:48.267Z,45.12
2023-03-29T01:55:51.870Z,44.35
2023-03-29T02:25:55.748Z,41.94
2023-03-29T02:55:59.151Z,42.17
2023-03-29T03:26:02.711Z,45.40
2023-03-29T03:56:06.307Z,44.68
2023-03-29T04:26:09.395Z,43.01
2023-03-29T04:56:12.885Z,44.04
2023-03-29T05:26:16.027Z,46.53
2023-03-29T05:56:19.454Z,50.76
2023-03-29T06:26:22.622Z,50.93
2023-03-29T06:56:25.976Z,48.03
2023-03-29T07:26:30.185Z,50.67
2023-03-29T07:56:33.919Z,55.63
2023-03-29T08:26:37.215Z,63.57
2023-03-29T08:56:40.580Z,56.47
2023-03-29T09:26:43.858Z,60.32
2023-03-29T09:56:46.768Z,56.63
2023-03-29T10:26:51.446Z,58.20
2023-03-29T10:56:54.324Z,54.77
2023-03-29T11:26:58.240Z,54.18
2023-03-29T11:57:01.172Z,49.13
2023-03-29T12:27:05.566Z,49.45
2023-03-29T12:57:08.512Z,48.60
2023-03-29T13:27:12.142Z,49.40
2023-03-29T13:57:32.987Z,48.75
2023-03-29T16:00:28.295Z,51.50
2023-03-29T17:01:38.587Z,54.74
2023-03-29T17:31:42.657Z,56.56
2023-03-29T18:01:45.947Z,57.98
2023-03-29T18:31:52.735Z,59.36
2023-03-29T20:03:33.245Z,60.98
2023-03-29T20:33:36.709Z,54.02
2023-03-29T21:03:39.850Z,61.81
2023-03-29T21:33:43.248Z,59.13
2023-03-29T22:03:46.344Z,61.46
2023-03-29T22:33:49.288Z,60.76
2023-03-29T23:03:56.289Z,59.71
2023-03-29T23:33:59.706Z,57.12
